sensor_id;sensor_type;location;lat;lon;timestamp;P1;durP1;ratioP1;P2;durP2;ratioP2
13469;SDS011;6807;48.682;9.032;2022-07-23T00:15:04;4.30;;;3.88;;
13469;SDS011;6807;48.682;9.032;2022-07-23T00:30:24;4.88;;;3.95;;
13469;SDS011;6807;48.682;9.032;2022-07-23T00:33:28;5.65;;;4.05;;
13469;SDS011;6807;48.682;9.032;2022-07-23T01:55:40;4.90;;;3.88;;
13469;SDS011;6807;48.682;9.032;2022-07-23T02:02:17;4.15;;;3.80;;
13469;SDS011;6807;48.682;9.032;2022-07-23T02:06:35;4.65;;;4.13;;
13469;SDS011;6807;48.682;9.032;2022-07-23T02:23:01;4.43;;;4.03;;
13469;SDS011;6807;48.682;9.032;2022-07-23T02:25:28;4.82;;;4.32;;
13469;SDS011;6807;48.682;9.032;2022-07-23T02:27:55;6.43;;;4.00;;
13469;SDS011;6807;48.682;9.032;2022-07-23T02:30:22;4.55;;;4.15;;
13469;SDS011;6807;48.682;9.032;2022-07-23T02:32:49;4.50;;;4.10;;
13469;SDS011;6807;48.682;9.032;2022-07-23T02:35:16;4.50;;;4.10;;
13469;SDS011;6807;48.682;9.032;2022-07-23T02:37:43;5.95;;;4.32;;
13469;SDS011;6807;48.682;9.032;2022-07-23T02:40:11;4.20;;;3.72;;
13469;SDS011;6807;48.682;9.032;2022-07-23T02:42:38;5.55;;;4.07;;
13469;SDS011;6807;48.682;9.032;2022-07-23T02:45:06;4.40;;;3.83;;
13469;SDS011;6807;48.682;9.032;2022-07-23T02:47:33;4.40;;;4.00;;
13469;SDS011;6807;48.682;9.032;2022-07-23T02:50:00;4.88;;;4.10;;
13469;SDS011;6807;48.682;9.032;2022-07-23T02:52:28;4.85;;;4.30;;
13469;SDS011;6807;48.682;9.032;2022-07-23T02:54:55;5.15;;;4.22;;
13469;SDS011;6807;48.682;9.032;2022-07-23T02:57:24;4.80;;;4.00;;
13469;SDS011;6807;48.682;9.032;2022-07-23T02:59:51;4.60;;;4.15;;
13469;SDS011;6807;48.682;9.032;2022-07-23T03:02:17;4.95;;;4.35;;
13469;SDS011;6807;48.682;9.032;2022-07-23T03:04:44;4.85;;;4.35;;
13469;SDS011;6807;48.682;9.032;2022-07-23T03:07:11;5.05;;;4.50;;
13469;SDS011;6807;48.682;9.032;2022-07-23T03:09:38;4.85;;;4.35;;
13469;SDS011;6807;48.682;9.032;2022-07-23T03:12:05;4.35;;;3.95;;
13469;SDS011;6807;48.682;9.032;2022-07-23T03:14:34;4.78;;;4.38;;
13469;SDS011;6807;48.682;9.032;2022-07-23T03:17:01;5.03;;;4.53;;
13469;SDS011;6807;48.682;9.032;2022-07-23T03:19:28;5.40;;;4.75;;
13469;SDS011;6807;48.682;9.032;2022-07-23T03:21:55;4.43;;;4.03;;
13469;SDS011;6807;48.682;9.032;2022-07-23T03:24:22;4.65;;;4.20;;
13469;SDS011;6807;48.682;9.032;2022-07-23T03:27:09;4.95;;;4.45;;
13469;SDS011;6807;48.682;9.032;2022-07-23T03:29:37;5.80;;;4.28;;
13469;SDS011;6807;48.682;9.032;2022-07-23T03:32:04;4.80;;;4.40;;
13469;SDS011;6807;48.682;9.032;2022-07-23T03:34:31;5.78;;;4.13;;
13469;SDS011;6807;48.682;9.032;2022-07-23T03:36:58;5.15;;;4.63;;
13469;SDS011;6807;48.682;9.032;2022-07-23T03:39:25;6.43;;;4.68;;
13469;SDS011;6807;48.682;9.032;2022-07-23T03:41:52;4.80;;;4.40;;
13469;SDS011;6807;48.682;9.032;2022-07-23T03:44:19;5.60;;;5.10;;
13469;SDS011;6807;48.682;9.032;2022-07-23T03:46:47;5.28;;;4.78;;
13469;SDS011;6807;48.682;9.032;2022-07-23T03:49:14;5.03;;;4.53;;
13469;SDS011;6807;48.682;9.032;2022-07-23T03:51:40;5.97;;;4.50;;
13469;SDS011;6807;48.682;9.032;2022-07-23T03:54:08;5.07;;;4.57;;
13469;SDS011;6807;48.682;9.032;2022-07-23T03:56:35;5.20;;;4.75;;
13469;SDS011;6807;48.682;9.032;2022-07-23T03:59:02;4.63;;;4.22;;
13469;SDS011;6807;48.682;9.032;2022-07-23T04:01:29;6.13;;;5.25;;
13469;SDS011;6807;48.682;9.032;2022-07-23T04:03:57;4.72;;;4.20;;
13469;SDS011;6807;48.682;9.032;2022-07-23T04:06:24;4.97;;;4.40;;
13469;SDS011;6807;48.682;9.032;2022-07-23T04:08:51;5.30;;;4.60;;
13469;SDS011;6807;48.682;9.032;2022-07-23T04:11:19;5.47;;;4.25;;
13469;SDS011;6807;48.682;9.032;2022-07-23T04:13:46;6.55;;;5.22;;
13469;SDS011;6807;48.682;9.032;2022-07-23T04:16:13;5.07;;;4.57;;
13469;SDS011;6807;48.682;9.032;2022-07-23T04:18:40;5.22;;;4.72;;
13469;SDS011;6807;48.682;9.032;2022-07-23T04:21:08;4.95;;;4.45;;
13469;SDS011;6807;48.682;9.032;2022-07-23T04:23:35;5.22;;;4.75;;
13469;SDS011;6807;48.682;9.032;2022-07-23T04:26:02;5.18;;;4.45;;
13469;SDS011;6807;48.682;9.032;2022-07-23T04:28:29;5.25;;;4.80;;
13469;SDS011;6807;48.682;9.032;2022-07-23T04:30:56;6.55;;;4.97;;
13469;SDS011;6807;48.682;9.032;2022-07-23T04:33:23;6.45;;;4.85;;
13469;SDS011;6807;48.682;9.032;2022-07-23T04:35:50;5.00;;;4.55;;
13469;SDS011;6807;48.682;9.032;2022-07-23T04:38:18;9.32;;;4.80;;
13469;SDS011;6807;48.682;9.032;2022-07-23T04:40:45;5.85;;;4.70;;
13469;SDS011;6807;48.682;9.032;2022-07-23T04:43:12;5.45;;;4.68;;
13469;SDS011;6807;48.682;9.032;2022-07-23T04:45:39;5.30;;;4.65;;
13469;SDS011;6807;48.682;9.032;2022-07-23T04:48:06;6.82;;;5.10;;
13469;SDS011;6807;48.682;9.032;2022-07-23T04:50:33;4.88;;;4.43;;
13469;SDS011;6807;48.682;9.032;2022-07-23T04:53:00;5.15;;;4.65;;
13469;SDS011;6807;48.682;9.032;2022-07-23T04:55:29;5.57;;;5.00;;
13469;SDS011;6807;48.682;9.032;2022-07-23T04:57:55;7.60;;;5.30;;
13469;SDS011;6807;48.682;9.032;2022-07-23T05:00:22;5.25;;;4.78;;
13469;SDS011;6807;48.682;9.032;2022-07-23T05:02:49;5.32;;;4.82;;
13469;SDS011;6807;48.682;9.032;2022-07-23T05:05:16;5.88;;;5.28;;
13469;SDS011;6807;48.682;9.032;2022-07-23T05:07:43;5.80;;;5.20;;
13469;SDS011;6807;48.682;9.032;2022-07-23T05:10:10;5.88;;;4.35;;
13469;SDS011;6807;48.682;9.032;2022-07-23T05:12:38;5.28;;;4.72;;
13469;SDS011;6807;48.682;9.032;2022-07-23T05:15:05;6.97;;;5.10;;
13469;SDS011;6807;48.682;9.032;2022-07-23T05:17:32;4.80;;;4.40;;
13469;SDS011;6807;48.682;9.032;2022-07-23T05:19:59;5.45;;;4.95;;
13469;SDS011;6807;48.682;9.032;2022-07-23T05:22:26;5.32;;;4.72;;
13469;SDS011;6807;48.682;9.032;2022-07-23T05:24:53;5.93;;;4.80;;
13469;SDS011;6807;48.682;9.032;2022-07-23T05:27:20;4.95;;;4.55;;
13469;SDS011;6807;48.682;9.032;2022-07-23T05:29:48;5.65;;;4.80;;
13469;SDS011;6807;48.682;9.032;2022-07-23T05:32:15;6.20;;;5.18;;
13469;SDS011;6807;48.682;9.032;2022-07-23T05:34:42;5.57;;;4.72;;
13469;SDS011;6807;48.682;9.032;2022-07-23T05:37:09;5.97;;;5.25;;
13469;SDS011;6807;48.682;9.032;2022-07-23T05:39:36;5.45;;;4.95;;
13469;SDS011;6807;48.682;9.032;2022-07-23T05:42:03;5.25;;;4.75;;
13469;SDS011;6807;48.682;9.032;2022-07-23T05:44:30;5.47;;;4.72;;
13469;SDS011;6807;48.682;9.032;2022-07-23T05:46:58;5.70;;;4.85;;
13469;SDS011;6807;48.682;9.032;2022-07-23T05:49:25;8.18;;;5.25;;
13469;SDS011;6807;48.682;9.032;2022-07-23T05:51:52;5.10;;;4.60;;
13469;SDS011;6807;48.682;9.032;2022-07-23T05:54:19;5.90;;;5.30;;
13469;SDS011;6807;48.682;9.032;2022-07-23T05:56:46;5.60;;;4.95;;
13469;SDS011;6807;48.682;9.032;2022-07-23T05:59:13;6.30;;;5.70;;
13469;SDS011;6807;48.682;9.032;2022-07-23T06:01:40;5.28;;;4.78;;
13469;SDS011;6807;48.682;9.032;2022-07-23T06:04:08;5.55;;;5.05;;
13469;SDS011;6807;48.682;9.032;2022-07-23T06:06:35;5.85;;;5.25;;
13469;SDS011;6807;48.682;9.032;2022-07-23T06:09:02;5.78;;;4.90;;
13469;SDS011;6807;48.682;9.032;2022-07-23T06:11:29;5.57;;;5.07;;
13469;SDS011;6807;48.682;9.032;2022-07-23T06:13:56;6.82;;;5.70;;
13469;SDS011;6807;48.682;9.032;2022-07-23T06:16:23;8.05;;;5.93;;
13469;SDS011;6807;48.682;9.032;2022-07-23T06:18:50;7.10;;;5.20;;
13469;SDS011;6807;48.682;9.032;2022-07-23T06:21:18;6.50;;;5.50;;
13469;SDS011;6807;48.682;9.032;2022-07-23T06:23:45;6.50;;;5.90;;
13469;SDS011;6807;48.682;9.032;2022-07-23T06:26:12;5.78;;;5.28;;
13469;SDS011;6807;48.682;9.032;2022-07-23T06:28:38;6.00;;;5.40;;
13469;SDS011;6807;48.682;9.032;2022-07-23T06:31:05;6.47;;;5.88;;
13469;SDS011;6807;48.682;9.032;2022-07-23T06:33:33;7.00;;;5.95;;
13469;SDS011;6807;48.682;9.032;2022-07-23T06:35:59;5.95;;;5.35;;
13469;SDS011;6807;48.682;9.032;2022-07-23T06:38:28;6.65;;;5.70;;
13469;SDS011;6807;48.682;9.032;2022-07-23T06:40:54;6.18;;;5.65;;
13469;SDS011;6807;48.682;9.032;2022-07-23T06:43:21;5.75;;;5.15;;
13469;SDS011;6807;48.682;9.032;2022-07-23T06:45:48;6.78;;;5.65;;
13469;SDS011;6807;48.682;9.032;2022-07-23T06:48:15;5.88;;;5.38;;
13469;SDS011;6807;48.682;9.032;2022-07-23T06:50:42;6.32;;;5.82;;
13469;SDS011;6807;48.682;9.032;2022-07-23T06:53:09;6.30;;;5.70;;
13469;SDS011;6807;48.682;9.032;2022-07-23T06:55:37;6.65;;;5.60;;
13469;SDS011;6807;48.682;9.032;2022-07-23T06:58:05;6.40;;;5.70;;
13469;SDS011;6807;48.682;9.032;2022-07-23T07:00:32;5.97;;;5.40;;
13469;SDS011;6807;48.682;9.032;2022-07-23T07:02:59;8.05;;;5.53;;
13469;SDS011;6807;48.682;9.032;2022-07-23T07:05:25;5.60;;;5.10;;
13469;SDS011;6807;48.682;9.032;2022-07-23T07:07:53;5.55;;;5.05;;
13469;SDS011;6807;48.682;9.032;2022-07-23T07:10:20;5.88;;;5.38;;
13469;SDS011;6807;48.682;9.032;2022-07-23T07:12:48;5.78;;;4.95;;
13469;SDS011;6807;48.682;9.032;2022-07-23T07:15:15;5.80;;;5.20;;
13469;SDS011;6807;48.682;9.032;2022-07-23T07:17:42;6.15;;;5.55;;
13469;SDS011;6807;48.682;9.032;2022-07-23T07:20:09;6.07;;;4.80;;
13469;SDS011;6807;48.682;9.032;2022-07-23T07:22:36;5.70;;;5.20;;
13469;SDS011;6807;48.682;9.032;2022-07-23T07:25:04;6.43;;;5.03;;
13469;SDS011;6807;48.682;9.032;2022-07-23T07:27:31;5.57;;;4.70;;
13469;SDS011;6807;48.682;9.032;2022-07-23T07:29:59;5.43;;;4.93;;
13469;SDS011;6807;48.682;9.032;2022-07-23T07:32:26;5.40;;;4.90;;
13469;SDS011;6807;48.682;9.032;2022-07-23T07:34:53;5.53;;;5.03;;
13469;SDS011;6807;48.682;9.032;2022-07-23T07:37:20;5.85;;;5.35;;
13469;SDS011;6807;48.682;9.032;2022-07-23T07:39:47;6.05;;;4.82;;
13469;SDS011;6807;48.682;9.032;2022-07-23T07:42:14;6.78;;;4.78;;
13469;SDS011;6807;48.682;9.032;2022-07-23T07:44:41;5.05;;;4.65;;
13469;SDS011;6807;48.682;9.032;2022-07-23T07:47:09;5.65;;;4.93;;
13469;SDS011;6807;48.682;9.032;2022-07-23T07:49:36;5.13;;;4.72;;
13469;SDS011;6807;48.682;9.032;2022-07-23T07:52:03;4.70;;;4.30;;
13469;SDS011;6807;48.682;9.032;2022-07-23T07:54:31;5.45;;;4.43;;
13469;SDS011;6807;48.682;9.032;2022-07-23T07:56:58;5.38;;;4.88;;
13469;SDS011;6807;48.682;9.032;2022-07-23T07:59:25;5.32;;;4.82;;
13469;SDS011;6807;48.682;9.032;2022-07-23T08:01:52;5.68;;;5.05;;
13469;SDS011;6807;48.682;9.032;2022-07-23T08:04:20;4.75;;;4.35;;
13469;SDS011;6807;48.682;9.032;2022-07-23T08:06:47;5.10;;;4.60;;
13469;SDS011;6807;48.682;9.032;2022-07-23T08:09:14;5.00;;;4.60;;
13469;SDS011;6807;48.682;9.032;2022-07-23T08:11:41;6.13;;;4.93;;
13469;SDS011;6807;48.682;9.032;2022-07-23T08:14:08;4.75;;;4.35;;
13469;SDS011;6807;48.682;9.032;2022-07-23T08:16:36;5.63;;;4.95;;
13469;SDS011;6807;48.682;9.032;2022-07-23T08:19:03;5.20;;;4.68;;
13469;SDS011;6807;48.682;9.032;2022-07-23T08:21:31;4.75;;;4.35;;
13469;SDS011;6807;48.682;9.032;2022-07-23T08:23:58;5.35;;;4.85;;
13469;SDS011;6807;48.682;9.032;2022-07-23T08:26:25;5.35;;;4.85;;
13469;SDS011;6807;48.682;9.032;2022-07-23T08:28:51;4.82;;;4.35;;
13469;SDS011;6807;48.682;9.032;2022-07-23T08:31:18;5.00;;;4.60;;
13469;SDS011;6807;48.682;9.032;2022-07-23T08:33:45;4.85;;;4.18;;
13469;SDS011;6807;48.682;9.032;2022-07-23T08:36:12;5.10;;;4.60;;
13469;SDS011;6807;48.682;9.032;2022-07-23T08:38:40;5.20;;;4.13;;
13469;SDS011;6807;48.682;9.032;2022-07-23T08:41:08;4.70;;;4.30;;
13469;SDS011;6807;48.682;9.032;2022-07-23T08:43:35;4.85;;;4.43;;
13469;SDS011;6807;48.682;9.032;2022-07-23T08:46:03;4.95;;;4.50;;
13469;SDS011;6807;48.682;9.032;2022-07-23T08:48:31;5.30;;;4.80;;
13469;SDS011;6807;48.682;9.032;2022-07-23T08:51:00;4.50;;;4.10;;
13469;SDS011;6807;48.682;9.032;2022-07-23T08:53:30;7.07;;;4.60;;
13469;SDS011;6807;48.682;9.032;2022-07-23T08:56:00;4.60;;;4.20;;
13469;SDS011;6807;48.682;9.032;2022-07-23T08:58:28;5.15;;;4.65;;
13469;SDS011;6807;48.682;9.032;2022-07-23T09:00:56;5.03;;;4.63;;
13469;SDS011;6807;48.682;9.032;2022-07-23T09:03:24;5.28;;;4.78;;
13469;SDS011;6807;48.682;9.032;2022-07-23T09:05:52;5.55;;;5.00;;
13469;SDS011;6807;48.682;9.032;2022-07-23T09:08:21;4.53;;;4.13;;
13469;SDS011;6807;48.682;9.032;2022-07-23T09:10:50;4.50;;;4.10;;
13469;SDS011;6807;48.682;9.032;2022-07-23T09:13:26;5.63;;;4.30;;
13469;SDS011;6807;48.682;9.032;2022-07-23T09:15:56;5.10;;;4.60;;
13469;SDS011;6807;48.682;9.032;2022-07-23T09:18:41;4.50;;;4.10;;
13469;SDS011;6807;48.682;9.032;2022-07-23T09:21:10;5.32;;;4.32;;
13469;SDS011;6807;48.682;9.032;2022-07-23T09:23:40;5.18;;;4.68;;
13469;SDS011;6807;48.682;9.032;2022-07-23T09:26:18;4.78;;;4.13;;
13469;SDS011;6807;48.682;9.032;2022-07-23T09:28:51;5.32;;;4.70;;
13469;SDS011;6807;48.682;9.032;2022-07-23T09:31:21;4.90;;;4.50;;
13469;SDS011;6807;48.682;9.032;2022-07-23T09:33:48;5.88;;;5.10;;
13469;SDS011;6807;48.682;9.032;2022-07-23T09:36:15;6.95;;;6.35;;
13469;SDS011;6807;48.682;9.032;2022-07-23T09:38:52;5.75;;;5.15;;
13469;SDS011;6807;48.682;9.032;2022-07-23T09:41:19;5.18;;;4.78;;
13469;SDS011;6807;48.682;9.032;2022-07-23T09:43:46;5.78;;;4.85;;
13469;SDS011;6807;48.682;9.032;2022-07-23T09:46:17;6.35;;;5.53;;
13469;SDS011;6807;48.682;9.032;2022-07-23T09:48:49;5.25;;;4.75;;
13469;SDS011;6807;48.682;9.032;2022-07-23T09:51:16;5.32;;;4.90;;
13469;SDS011;6807;48.682;9.032;2022-07-23T09:53:46;5.30;;;4.90;;
13469;SDS011;6807;48.682;9.032;2022-07-23T09:56:13;6.70;;;5.35;;
13469;SDS011;6807;48.682;9.032;2022-07-23T09:58:41;5.30;;;4.80;;
13469;SDS011;6807;48.682;9.032;2022-07-23T10:01:13;5.93;;;5.38;;
13469;SDS011;6807;48.682;9.032;2022-07-23T10:03:42;5.85;;;5.10;;
13469;SDS011;6807;48.682;9.032;2022-07-23T10:06:09;6.05;;;5.00;;
13469;SDS011;6807;48.682;9.032;2022-07-23T10:08:39;5.38;;;4.88;;
13469;SDS011;6807;48.682;9.032;2022-07-23T10:11:07;5.68;;;5.18;;
13469;SDS011;6807;48.682;9.032;2022-07-23T10:13:37;5.80;;;5.30;;
13469;SDS011;6807;48.682;9.032;2022-07-23T10:16:21;4.90;;;4.50;;
13469;SDS011;6807;48.682;9.032;2022-07-23T10:18:50;5.10;;;4.70;;
13469;SDS011;6807;48.682;9.032;2022-07-23T10:21:20;9.27;;;4.97;;
13469;SDS011;6807;48.682;9.032;2022-07-23T10:24:10;4.57;;;4.25;;
13469;SDS011;6807;48.682;9.032;2022-07-23T10:26:46;5.55;;;4.70;;
13469;SDS011;6807;48.682;9.032;2022-07-23T10:29:23;5.25;;;4.40;;
13469;SDS011;6807;48.682;9.032;2022-07-23T10:32:04;5.75;;;5.10;;
13469;SDS011;6807;48.682;9.032;2022-07-23T10:34:47;9.05;;;8.15;;
13469;SDS011;6807;48.682;9.032;2022-07-23T10:37:22;5.40;;;4.90;;
13469;SDS011;6807;48.682;9.032;2022-07-23T10:40:08;6.72;;;4.80;;
13469;SDS011;6807;48.682;9.032;2022-07-23T10:42:36;4.97;;;4.57;;
13469;SDS011;6807;48.682;9.032;2022-07-23T10:47:50;6.97;;;6.40;;
13469;SDS011;6807;48.682;9.032;2022-07-23T10:50:20;4.95;;;4.03;;
13469;SDS011;6807;48.682;9.032;2022-07-23T10:55:48;4.40;;;4.00;;
13469;SDS011;6807;48.682;9.032;2022-07-23T10:58:18;5.18;;;4.63;;
13469;SDS011;6807;48.682;9.032;2022-07-23T11:00:47;4.90;;;4.43;;
13469;SDS011;6807;48.682;9.032;2022-07-23T11:03:33;4.88;;;4.47;;
13469;SDS011;6807;48.682;9.032;2022-07-23T11:06:04;5.85;;;4.85;;
13469;SDS011;6807;48.682;9.032;2022-07-23T11:08:32;4.80;;;4.35;;
13469;SDS011;6807;48.682;9.032;2022-07-23T11:13:45;4.40;;;4.10;;
13469;SDS011;6807;48.682;9.032;2022-07-23T11:16:16;4.85;;;4.40;;
13469;SDS011;6807;48.682;9.032;2022-07-23T11:18:55;5.20;;;4.60;;
13469;SDS011;6807;48.682;9.032;2022-07-23T11:24:12;4.78;;;4.38;;
13469;SDS011;6807;48.682;9.032;2022-07-23T11:26:47;5.38;;;4.88;;
13469;SDS011;6807;48.682;9.032;2022-07-23T11:29:38;5.13;;;4.47;;
13469;SDS011;6807;48.682;9.032;2022-07-23T11:32:17;4.65;;;4.25;;
13469;SDS011;6807;48.682;9.032;2022-07-23T11:34:46;4.88;;;4.47;;
13469;SDS011;6807;48.682;9.032;2022-07-23T11:37:27;4.55;;;4.13;;
13469;SDS011;6807;48.682;9.032;2022-07-23T11:39:59;5.05;;;4.55;;
13469;SDS011;6807;48.682;9.032;2022-07-23T11:42:27;4.82;;;4.43;;
13469;SDS011;6807;48.682;9.032;2022-07-23T11:44:54;4.50;;;4.20;;
13469;SDS011;6807;48.682;9.032;2022-07-23T11:47:22;4.93;;;4.50;;
13469;SDS011;6807;48.682;9.032;2022-07-23T11:49:53;5.10;;;4.60;;
13469;SDS011;6807;48.682;9.032;2022-07-23T11:52:21;4.88;;;4.47;;
13469;SDS011;6807;48.682;9.032;2022-07-23T11:54:51;4.90;;;4.32;;
13469;SDS011;6807;48.682;9.032;2022-07-23T11:57:20;4.72;;;4.32;;
13469;SDS011;6807;48.682;9.032;2022-07-23T11:59:51;5.00;;;4.50;;
13469;SDS011;6807;48.682;9.032;2022-07-23T12:02:21;5.00;;;4.57;;
13469;SDS011;6807;48.682;9.032;2022-07-23T12:04:50;4.82;;;4.43;;
13469;SDS011;6807;48.682;9.032;2022-07-23T12:07:27;4.97;;;4.47;;
13469;SDS011;6807;48.682;9.032;2022-07-23T12:09:57;4.60;;;4.20;;
13469;SDS011;6807;48.682;9.032;2022-07-23T12:12:26;5.13;;;4.63;;
13469;SDS011;6807;48.682;9.032;2022-07-23T12:14:54;5.18;;;4.70;;
13469;SDS011;6807;48.682;9.032;2022-07-23T12:17:27;4.80;;;4.40;;
13469;SDS011;6807;48.682;9.032;2022-07-23T12:19:55;4.68;;;4.28;;
13469;SDS011;6807;48.682;9.032;2022-07-23T12:22:23;5.05;;;4.57;;
13469;SDS011;6807;48.682;9.032;2022-07-23T12:24:58;4.82;;;4.40;;
13469;SDS011;6807;48.682;9.032;2022-07-23T12:27:27;6.07;;;4.97;;
13469;SDS011;6807;48.682;9.032;2022-07-23T12:29:54;5.47;;;5.00;;
13469;SDS011;6807;48.682;9.032;2022-07-23T12:32:22;4.95;;;4.53;;
13469;SDS011;6807;48.682;9.032;2022-07-23T12:35:00;5.45;;;4.68;;
13469;SDS011;6807;48.682;9.032;2022-07-23T12:37:30;6.75;;;4.93;;
13469;SDS011;6807;48.682;9.032;2022-07-23T12:40:03;4.80;;;4.40;;
13469;SDS011;6807;48.682;9.032;2022-07-23T12:42:49;4.70;;;4.30;;
13469;SDS011;6807;48.682;9.032;2022-07-23T12:45:18;4.85;;;4.45;;
13469;SDS011;6807;48.682;9.032;2022-07-23T12:47:58;6.13;;;5.10;;
13469;SDS011;6807;48.682;9.032;2022-07-23T12:50:34;4.90;;;4.50;;
13469;SDS011;6807;48.682;9.032;2022-07-23T12:53:08;5.25;;;4.75;;
13469;SDS011;6807;48.682;9.032;2022-07-23T12:55:38;5.47;;;4.93;;
13469;SDS011;6807;48.682;9.032;2022-07-23T12:58:07;6.40;;;4.82;;
13469;SDS011;6807;48.682;9.032;2022-07-23T13:00:52;5.43;;;4.88;;
13469;SDS011;6807;48.682;9.032;2022-07-23T13:03:21;6.13;;;5.53;;
13469;SDS011;6807;48.682;9.032;2022-07-23T13:05:49;5.25;;;4.70;;
13469;SDS011;6807;48.682;9.032;2022-07-23T13:08:16;6.18;;;4.32;;
13469;SDS011;6807;48.682;9.032;2022-07-23T13:10:44;5.25;;;4.75;;
13469;SDS011;6807;48.682;9.032;2022-07-23T13:13:13;4.93;;;4.53;;
13469;SDS011;6807;48.682;9.032;2022-07-23T13:15:40;5.20;;;4.78;;
13469;SDS011;6807;48.682;9.032;2022-07-23T13:18:07;5.28;;;4.78;;
13469;SDS011;6807;48.682;9.032;2022-07-23T13:20:34;5.13;;;4.70;;
13469;SDS011;6807;48.682;9.032;2022-07-23T13:23:03;5.15;;;4.65;;
13469;SDS011;6807;48.682;9.032;2022-07-23T13:25:30;5.15;;;4.60;;
13469;SDS011;6807;48.682;9.032;2022-07-23T13:27:59;4.72;;;4.32;;
13469;SDS011;6807;48.682;9.032;2022-07-23T13:30:26;5.10;;;4.60;;
13469;SDS011;6807;48.682;9.032;2022-07-23T13:32:53;5.82;;;5.20;;
13469;SDS011;6807;48.682;9.032;2022-07-23T13:35:20;6.70;;;4.80;;
13469;SDS011;6807;48.682;9.032;2022-07-23T13:37:47;4.80;;;4.40;;
13469;SDS011;6807;48.682;9.032;2022-07-23T13:40:14;6.43;;;4.93;;
13469;SDS011;6807;48.682;9.032;2022-07-23T13:42:42;5.78;;;5.07;;
13469;SDS011;6807;48.682;9.032;2022-07-23T13:45:11;5.13;;;4.63;;
13469;SDS011;6807;48.682;9.032;2022-07-23T13:47:38;5.50;;;5.00;;
13469;SDS011;6807;48.682;9.032;2022-07-23T13:50:05;5.00;;;4.60;;
13469;SDS011;6807;48.682;9.032;2022-07-23T13:52:32;5.40;;;4.90;;
13469;SDS011;6807;48.682;9.032;2022-07-23T13:55:00;5.00;;;4.50;;
13469;SDS011;6807;48.682;9.032;2022-07-23T13:57:27;5.50;;;5.00;;
13469;SDS011;6807;48.682;9.032;2022-07-23T13:59:54;7.28;;;5.20;;
13469;SDS011;6807;48.682;9.032;2022-07-23T14:02:22;5.72;;;4.88;;
13469;SDS011;6807;48.682;9.032;2022-07-23T14:04:49;5.90;;;5.05;;
13469;SDS011;6807;48.682;9.032;2022-07-23T14:07:17;6.28;;;5.25;;
13469;SDS011;6807;48.682;9.032;2022-07-23T14:09:44;7.07;;;4.97;;
13469;SDS011;6807;48.682;9.032;2022-07-23T14:12:11;6.28;;;5.20;;
13469;SDS011;6807;48.682;9.032;2022-07-23T14:14:38;5.80;;;5.00;;
13469;SDS011;6807;48.682;9.032;2022-07-23T14:17:05;6.00;;;5.40;;
13469;SDS011;6807;48.682;9.032;2022-07-23T14:19:33;5.70;;;5.10;;
13469;SDS011;6807;48.682;9.032;2022-07-23T14:22:00;5.78;;;5.18;;
13469;SDS011;6807;48.682;9.032;2022-07-23T14:24:28;6.78;;;5.22;;
13469;SDS011;6807;48.682;9.032;2022-07-23T14:26:55;5.63;;;5.00;;
13469;SDS011;6807;48.682;9.032;2022-07-23T14:29:22;5.70;;;5.20;;
13469;SDS011;6807;48.682;9.032;2022-07-23T14:31:49;6.13;;;5.13;;
13469;SDS011;6807;48.682;9.032;2022-07-23T14:34:17;5.57;;;5.07;;
13469;SDS011;6807;48.682;9.032;2022-07-23T14:36:46;5.38;;;4.88;;
13469;SDS011;6807;48.682;9.032;2022-07-23T14:39:13;7.05;;;5.05;;
13469;SDS011;6807;48.682;9.032;2022-07-23T14:41:40;6.00;;;5.00;;
13469;SDS011;6807;48.682;9.032;2022-07-23T14:44:07;5.82;;;5.22;;
13469;SDS011;6807;48.682;9.032;2022-07-23T14:46:34;5.80;;;5.07;;
13469;SDS011;6807;48.682;9.032;2022-07-23T14:49:02;5.65;;;5.15;;
13469;SDS011;6807;48.682;9.032;2022-07-23T14:51:29;5.65;;;5.15;;
13469;SDS011;6807;48.682;9.032;2022-07-23T14:53:58;5.47;;;4.95;;
13469;SDS011;6807;48.682;9.032;2022-07-23T14:56:25;5.57;;;4.85;;
13469;SDS011;6807;48.682;9.032;2022-07-23T14:58:52;6.38;;;5.10;;
13469;SDS011;6807;48.682;9.032;2022-07-23T15:01:21;5.80;;;5.30;;
13469;SDS011;6807;48.682;9.032;2022-07-23T15:03:48;5.60;;;5.05;;
13469;SDS011;6807;48.682;9.032;2022-07-23T15:06:16;5.97;;;5.40;;
13469;SDS011;6807;48.682;9.032;2022-07-23T15:08:43;6.05;;;5.18;;
13469;SDS011;6807;48.682;9.032;2022-07-23T15:11:11;6.00;;;5.45;;
13469;SDS011;6807;48.682;9.032;2022-07-23T15:13:38;6.15;;;5.47;;
13469;SDS011;6807;48.682;9.032;2022-07-23T15:16:06;8.68;;;5.53;;
13469;SDS011;6807;48.682;9.032;2022-07-23T15:18:33;5.97;;;5.38;;
13469;SDS011;6807;48.682;9.032;2022-07-23T15:21:00;5.63;;;5.05;;
13469;SDS011;6807;48.682;9.032;2022-07-23T15:23:27;5.55;;;5.05;;
13469;SDS011;6807;48.682;9.032;2022-07-23T15:25:54;5.78;;;5.28;;
13469;SDS011;6807;48.682;9.032;2022-07-23T15:28:22;5.40;;;4.93;;
13469;SDS011;6807;48.682;9.032;2022-07-23T15:30:50;5.80;;;5.03;;
13469;SDS011;6807;48.682;9.032;2022-07-23T15:33:17;5.60;;;5.10;;
13469;SDS011;6807;48.682;9.032;2022-07-23T15:35:44;5.55;;;5.05;;
13469;SDS011;6807;48.682;9.032;2022-07-23T15:38:12;5.15;;;4.70;;
13469;SDS011;6807;48.682;9.032;2022-07-23T15:40:40;5.63;;;4.65;;
13469;SDS011;6807;48.682;9.032;2022-07-23T15:43:07;5.45;;;4.93;;
13469;SDS011;6807;48.682;9.032;2022-07-23T15:45:40;5.60;;;5.10;;
13469;SDS011;6807;48.682;9.032;2022-07-23T15:48:07;6.32;;;5.43;;
13469;SDS011;6807;48.682;9.032;2022-07-23T15:50:34;6.10;;;5.30;;
13469;SDS011;6807;48.682;9.032;2022-07-23T15:53:01;6.38;;;5.32;;
13469;SDS011;6807;48.682;9.032;2022-07-23T15:55:27;6.05;;;5.45;;
13469;SDS011;6807;48.682;9.032;2022-07-23T15:57:54;5.63;;;5.13;;
13469;SDS011;6807;48.682;9.032;2022-07-23T16:00:21;6.03;;;5.25;;
13469;SDS011;6807;48.682;9.032;2022-07-23T16:02:50;5.72;;;5.22;;
13469;SDS011;6807;48.682;9.032;2022-07-23T16:05:16;6.05;;;5.50;;
13469;SDS011;6807;48.682;9.032;2022-07-23T16:07:43;5.65;;;5.15;;
13469;SDS011;6807;48.682;9.032;2022-07-23T16:10:10;5.50;;;5.00;;
13469;SDS011;6807;48.682;9.032;2022-07-23T16:12:38;5.25;;;4.70;;
13469;SDS011;6807;48.682;9.032;2022-07-23T16:15:06;6.90;;;4.80;;
13469;SDS011;6807;48.682;9.032;2022-07-23T16:17:33;5.18;;;4.50;;
13469;SDS011;6807;48.682;9.032;2022-07-23T16:20:02;6.20;;;5.70;;
13469;SDS011;6807;48.682;9.032;2022-07-23T16:22:31;6.70;;;5.60;;
13469;SDS011;6807;48.682;9.032;2022-07-23T16:24:59;6.50;;;5.38;;
13469;SDS011;6807;48.682;9.032;2022-07-23T16:27:26;7.22;;;5.60;;
13469;SDS011;6807;48.682;9.032;2022-07-23T16:29:53;5.68;;;5.18;;
13469;SDS011;6807;48.682;9.032;2022-07-23T16:32:20;6.32;;;5.43;;
13469;SDS011;6807;48.682;9.032;2022-07-23T16:34:46;5.82;;;5.30;;
13469;SDS011;6807;48.682;9.032;2022-07-23T16:37:15;6.50;;;5.45;;
13469;SDS011;6807;48.682;9.032;2022-07-23T16:39:42;6.15;;;5.60;;
13469;SDS011;6807;48.682;9.032;2022-07-23T16:42:09;7.03;;;5.47;;
13469;SDS011;6807;48.682;9.032;2022-07-23T16:44:36;7.57;;;6.03;;
13469;SDS011;6807;48.682;9.032;2022-07-23T16:47:03;5.60;;;5.10;;
13469;SDS011;6807;48.682;9.032;2022-07-23T16:49:30;6.75;;;6.10;;
13469;SDS011;6807;48.682;9.032;2022-07-23T16:51:59;5.78;;;5.15;;
13469;SDS011;6807;48.682;9.032;2022-07-23T16:54:27;6.82;;;6.20;;
13469;SDS011;6807;48.682;9.032;2022-07-23T16:56:54;6.28;;;5.68;;
13469;SDS011;6807;48.682;9.032;2022-07-23T16:59:21;7.20;;;5.35;;
13469;SDS011;6807;48.682;9.032;2022-07-23T17:01:48;6.25;;;5.65;;
13469;SDS011;6807;48.682;9.032;2022-07-23T17:04:15;6.70;;;5.00;;
13469;SDS011;6807;48.682;9.032;2022-07-23T17:06:42;11.30;;;5.82;;
13469;SDS011;6807;48.682;9.032;2022-07-23T17:09:10;7.38;;;5.60;;
13469;SDS011;6807;48.682;9.032;2022-07-23T17:11:38;6.57;;;5.95;;
13469;SDS011;6807;48.682;9.032;2022-07-23T17:14:05;6.22;;;5.63;;
13469;SDS011;6807;48.682;9.032;2022-07-23T17:16:32;9.30;;;6.50;;
13469;SDS011;6807;48.682;9.032;2022-07-23T17:19:00;6.55;;;5.95;;
13469;SDS011;6807;48.682;9.032;2022-07-23T17:21:27;8.25;;;6.10;;
13469;SDS011;6807;48.682;9.032;2022-07-23T17:23:54;6.53;;;5.93;;
13469;SDS011;6807;48.682;9.032;2022-07-23T17:26:21;7.93;;;6.25;;